createdAt,value
2022-08-26T00:00:11.451Z,6.75
2022-08-26T00:01:15.449Z,6.90
2022-08-26T00:02:20.566Z,6.78
2022-08-26T00:03:24.121Z,6.55
2022-08-26T00:04:27.375Z,7.00
2022-08-26T00:05:29.498Z,7.00
2022-08-26T00:06:33.631Z,7.28
2022-08-26T00:07:37.433Z,6.60
2022-08-26T00:08:41.334Z,6.80
2022-08-26T00:09:47.342Z,6.82
2022-08-26T00:10:51.060Z,6.82
2022-08-26T00:11:54.519Z,7.18
2022-08-26T00:12:57.806Z,6.60
2022-08-26T00:13:59.973Z,7.10
2022-08-26T00:15:03.141Z,6.70
2022-08-26T00:16:08.883Z,6.53
2022-08-26T00:17:14.897Z,6.50
2022-08-26T00:18:22.144Z,6.85
2022-08-26T00:19:25.759Z,7.30
2022-08-26T00:20:31.217Z,7.25
2022-08-26T00:21:34.554Z,6.82
2022-08-26T00:22:38.344Z,6.97
2022-08-26T00:23:41.596Z,7.05
2022-08-26T00:24:47.944Z,6.82
2022-08-26T00:25:51.680Z,6.57
2022-08-26T00:26:53.898Z,7.40
2022-08-26T00:27:57.622Z,7.13
2022-08-26T00:28:59.752Z,6.93
2022-08-26T00:30:05.282Z,7.32
2022-08-26T00:31:10.966Z,7.10
2022-08-26T00:32:13.420Z,6.43
2022-08-26T00:33:18.428Z,6.80
2022-08-26T00:34:20.660Z,7.63
2022-08-26T00:35:24.762Z,7.05
2022-08-26T00:36:30.108Z,7.57
2022-08-26T00:37:33.483Z,7.40
2022-08-26T00:38:38.943Z,7.00
2022-08-26T00:39:41.338Z,7.55
2022-08-26T00:40:47.168Z,6.57
2022-08-26T00:41:50.511Z,6.43
2022-08-26T00:42:54.270Z,7.22
2022-08-26T00:43:57.410Z,6.80
2022-08-26T00:45:00.809Z,6.57
2022-08-26T00:46:09.176Z,7.20
2022-08-26T00:47:21.781Z,7.82
2022-08-26T00:48:31.752Z,6.90
2022-08-26T00:49:38.927Z,7.05
2022-08-26T00:50:49.440Z,6.63
2022-08-26T00:51:55.794Z,7.05
2022-08-26T00:53:01.279Z,7.38
2022-08-26T00:54:10.735Z,7.97
2022-08-26T00:55:20.453Z,7.38
2022-08-26T00:56:29.670Z,6.68
2022-08-26T00:57:34.197Z,7.47
2022-08-26T00:58:38.804Z,7.32
2022-08-26T00:59:45.670Z,7.22
2022-08-26T01:00:48.127Z,7.28
2022-08-26T01:01:52.039Z,7.20
2022-08-26T01:02:56.148Z,6.97
2022-08-26T01:04:00.917Z,7.25
2022-08-26T01:05:05.969Z,6.90
2022-08-26T01:06:12.616Z,7.00
2022-08-26T01:07:16.280Z,7.05
2022-08-26T01:08:19.402Z,7.80
2022-08-26T01:09:24.570Z,7.03
2022-08-26T01:10:31.294Z,7.22
2022-08-26T01:11:34.159Z,6.80
2022-08-26T01:12:42.395Z,7.10
2022-08-26T01:13:44.897Z,7.07
2022-08-26T01:14:48.989Z,7.18
2022-08-26T01:15:54.963Z,7.03
2022-08-26T01:16:58.566Z,6.82
2022-08-26T01:18:01.735Z,6.95
2022-08-26T01:19:11.255Z,7.45
2022-08-26T01:20:27.561Z,6.65
2022-08-26T01:21:40.729Z,7.22
2022-08-26T01:22:53.311Z,6.60
2022-08-26T01:23:57.857Z,7.53
2022-08-26T01:25:03.569Z,6.97
2022-08-26T01:26:19.695Z,7.03
2022-08-26T01:27:22.630Z,7.10
2022-08-26T01:28:30.670Z,7.10
2022-08-26T01:29:35.056Z,6.80
2022-08-26T01:30:40.866Z,6.85
2022-08-26T01:31:46.591Z,7.07
2022-08-26T01:32:51.637Z,6.85
2022-08-26T01:34:02.084Z,7.00
2022-08-26T01:35:05.957Z,7.38
2022-08-26T01:36:08.662Z,6.88
2022-08-26T01:37:15.908Z,7.32
2022-08-26T01:38:20.019Z,7.18
2022-08-26T01:39:23.277Z,6.78
2022-08-26T01:40:29.940Z,7.60
2022-08-26T01:41:33.826Z,6.78
2022-08-26T01:42:36.165Z,7.07
2022-08-26T01:43:41.326Z,7.05
2022-08-26T01:44:47.142Z,6.85
2022-08-26T01:45:54.624Z,6.90
2022-08-26T01:46:58.932Z,7.28
2022-08-26T01:48:05.566Z,7.25
2022-08-26T01:49:08.782Z,7.40
2022-08-26T01:50:20.134Z,7.28
2022-08-26T01:51:37.285Z,7.35
2022-08-26T01:52:43.670Z,7.68
2022-08-26T01:53:48.310Z,7.30
2022-08-26T01:54:51.648Z,6.82
2022-08-26T01:55:59.439Z,7.30
2022-08-26T01:57:03.103Z,7.50
2022-08-26T01:58:10.452Z,7.32
2022-08-26T01:59:16.887Z,7.43
2022-08-26T02:00:20.776Z,7.15
2022-08-26T02:01:24.849Z,7.10
2022-08-26T02:02:32.576Z,7.57
2022-08-26T02:03:42.287Z,7.28
2022-08-26T02:04:53.689Z,7.00
2022-08-26T02:05:59.185Z,7.53
2022-08-26T02:07:06.083Z,7.63
2022-08-26T02:08:10.403Z,7.70
2022-08-26T02:09:16.379Z,8.07
2022-08-26T02:10:18.600Z,7.18
2022-08-26T02:11:24.134Z,7.32
2022-08-26T02:12:28.338Z,7.00
2022-08-26T02:13:34.041Z,8.40
2022-08-26T02:14:43.790Z,7.03
2022-08-26T02:15:48.619Z,7.72
2022-08-26T02:16:53.209Z,7.53
2022-08-26T02:17:57.437Z,7.22
2022-08-26T02:19:02.510Z,7.38
2022-08-26T02:20:06.850Z,7.30
2022-08-26T02:21:17.979Z,7.75
2022-08-26T02:22:22.675Z,7.35
2022-08-26T02:23:28.296Z,7.78
2022-08-26T02:24:49.107Z,7.82
2022-08-26T02:25:57.931Z,7.78
2022-08-26T02:27:01.197Z,8.25
2022-08-26T02:28:05.014Z,7.47
2022-08-26T02:29:13.467Z,8.05
2022-08-26T02:30:21.709Z,8.68
2022-08-26T02:31:24.285Z,8.20
2022-08-26T02:32:27.456Z,8.30
2022-08-26T02:33:30.009Z,7.97
2022-08-26T02:34:34.898Z,7.45
2022-08-26T02:35:38.136Z,7.85
2022-08-26T02:36:41.912Z,9.13
2022-08-26T02:37:44.310Z,8.15
2022-08-26T02:38:47.554Z,7.97
2022-08-26T02:39:51.362Z,8.02
2022-08-26T02:40:55.378Z,8.40
2022-08-26T02:41:59.162Z,8.30
2022-08-26T02:43:02.502Z,8.05
2022-08-26T02:44:07.149Z,7.53
2022-08-26T02:45:11.756Z,8.13
2022-08-26T02:46:28.005Z,8.10
2022-08-26T02:47:34.293Z,7.70
2022-08-26T02:48:39.840Z,7.28
2022-08-26T02:49:44.430Z,7.68
2022-08-26T02:50:49.557Z,8.35
2022-08-26T02:51:53.583Z,7.80
2022-08-26T02:52:56.303Z,7.82
2022-08-26T02:53:59.495Z,8.07
2022-08-26T02:55:06.433Z,7.68
2022-08-26T02:56:10.489Z,7.90
2022-08-26T02:57:12.807Z,7.55
2022-08-26T02:58:16.352Z,7.70
2022-08-26T02:59:18.571Z,7.70
2022-08-26T03:00:21.994Z,7.25
2022-08-26T03:01:30.001Z,8.00
2022-08-26T03:02:33.267Z,8.07
2022-08-26T03:03:35.876Z,7.60
2022-08-26T03:04:40.019Z,7.82
2022-08-26T03:05:42.694Z,8.02
2022-08-26T03:06:47.049Z,8.00
2022-08-26T03:07:56.168Z,8.27
2022-08-26T03:08:58.392Z,8.40
2022-08-26T03:10:01.814Z,7.38
2022-08-26T03:11:13.315Z,8.55
2022-08-26T03:12:16.955Z,7.45
2022-08-26T03:13:21.010Z,7.97
2022-08-26T03:14:24.842Z,7.93
2022-08-26T03:15:26.970Z,8.00
2022-08-26T03:16:32.938Z,7.55
2022-08-26T03:17:35.142Z,9.50
2022-08-26T03:18:39.166Z,7.95
2022-08-26T03:19:41.361Z,8.68
2022-08-26T03:20:44.813Z,9.27
2022-08-26T03:21:47.247Z,8.05
2022-08-26T03:22:51.526Z,9.00
2022-08-26T03:23:53.724Z,8.98
2022-08-26T03:24:56.847Z,8.85
2022-08-26T03:25:59.011Z,8.02
2022-08-26T03:27:07.275Z,8.48
2022-08-26T03:28:09.806Z,8.20
2022-08-26T03:29:32.926Z,8.35
2022-08-26T03:30:44.701Z,8.57
2022-08-26T03:31:47.767Z,8.30
2022-08-26T03:32:50.969Z,8.80
2022-08-26T03:33:57.642Z,8.32
2022-08-26T03:35:03.003Z,8.10
2022-08-26T03:36:07.762Z,8.48
2022-08-26T03:37:10.950Z,8.07
2022-08-26T03:38:13.898Z,8.07
2022-08-26T03:39:17.136Z,8.43
2022-08-26T03:40:20.469Z,8.90
2022-08-26T03:41:23.786Z,8.57
2022-08-26T03:42:27.332Z,8.98
2022-08-26T03:43:30.780Z,8.00
2022-08-26T03:44:32.977Z,8.77
2022-08-26T03:45:37.498Z,8.23
2022-08-26T03:46:40.962Z,8.90
2022-08-26T03:47:44.696Z,8.90
2022-08-26T03:48:48.227Z,9.23
2022-08-26T03:49:51.889Z,9.23
2022-08-26T03:50:55.193Z,8.32
2022-08-26T03:51:57.737Z,9.40
2022-08-26T03:53:01.113Z,8.45
2022-08-26T03:54:05.613Z,9.23
2022-08-26T03:55:12.725Z,8.77
2022-08-26T03:56:15.032Z,8.93
2022-08-26T03:57:18.346Z,9.18
2022-08-26T03:58:24.340Z,9.50
2022-08-26T03:59:28.117Z,9.23
2022-08-26T04:00:30.818Z,8.85
2022-08-26T04:01:34.350Z,9.20
2022-08-26T04:02:36.580Z,8.88
2022-08-26T04:04:00.541Z,8.50
2022-08-26T04:05:04.138Z,9.13
2022-08-26T04:06:06.909Z,8.95
2022-08-26T04:07:10.338Z,8.85
2022-08-26T04:08:12.455Z,8.20
2022-08-26T04:09:20.716Z,8.98
2022-08-26T04:10:29.284Z,9.43
2022-08-26T04:11:34.377Z,9.63
2022-08-26T04:12:39.021Z,9.65
2022-08-26T04:13:42.517Z,9.00
2022-08-26T04:14:45.704Z,8.98
2022-08-26T04:15:47.931Z,8.52
2022-08-26T04:16:52.237Z,9.40
2022-08-26T04:17:55.785Z,10.05
2022-08-26T04:18:59.061Z,9.45
2022-08-26T04:20:02.319Z,9.27
2022-08-26T04:21:04.991Z,9.98
2022-08-26T04:22:11.405Z,10.27
2022-08-26T04:23:13.852Z,10.40
2022-08-26T04:24:22.631Z,9.55
2022-08-26T04:25:24.840Z,10.38
2022-08-26T04:26:28.157Z,9.93
2022-08-26T04:27:31.379Z,9.70
2022-08-26T04:28:33.707Z,10.02
2022-08-26T04:29:39.150Z,9.88
2022-08-26T04:30:41.357Z,9.88
2022-08-26T04:31:46.947Z,9.70
2022-08-26T04:32:51.411Z,9.55
2022-08-26T04:33:53.798Z,10.30
2022-08-26T04:34:57.618Z,9.77
2022-08-26T04:36:01.527Z,9.40
2022-08-26T04:37:05.652Z,9.77
2022-08-26T04:38:08.797Z,9.95
2022-08-26T04:39:14.962Z,9.52
2022-08-26T04:40:17.205Z,9.90
2022-08-26T04:41:22.310Z,10.18
2022-08-26T04:42:26.158Z,9.27
2022-08-26T04:43:30.490Z,9.77
2022-08-26T04:44:36.877Z,10.25
2022-08-26T04:45:41.907Z,9.82
2022-08-26T04:46:45.316Z,9.40
2022-08-26T04:47:47.907Z,10.15
2022-08-26T04:48:52.600Z,10.13
2022-08-26T04:49:57.569Z,9.98
2022-08-26T04:51:00.032Z,10.35
2022-08-26T04:52:03.651Z,9.65
2022-08-26T04:53:07.185Z,9.30
2022-08-26T04:54:10.691Z,9.38
2022-08-26T04:55:13.547Z,11.25
2022-08-26T04:56:17.217Z,10.90
2022-08-26T04:57:19.421Z,11.80
2022-08-26T04:58:24.537Z,10.82
2022-08-26T04:59:27.564Z,9.68
2022-08-26T05:00:31.836Z,10.10
2022-08-26T05:01:39.463Z,9.57
2022-08-26T05:02:42.864Z,10.55
2022-08-26T05:03:45.206Z,9.80
2022-08-26T05:04:48.414Z,9.98
2022-08-26T05:05:54.728Z,9.65
2022-08-26T05:07:02.226Z,10.32
2022-08-26T05:08:04.794Z,10.32
2022-08-26T05:09:07.988Z,9.88
2022-08-26T05:10:10.423Z,10.27
2022-08-26T05:11:14.159Z,9.68
2022-08-26T05:12:16.681Z,10.35
2022-08-26T05:13:21.994Z,9.90
2022-08-26T05:14:25.063Z,9.38
2022-08-26T05:15:28.271Z,9.20
2022-08-26T05:16:31.456Z,10.55
2022-08-26T05:17:36.354Z,9.93
2022-08-26T05:18:45.763Z,9.13
2022-08-26T05:19:48.778Z,8.88
2022-08-26T05:20:55.077Z,9.18
2022-08-26T05:21:58.197Z,9.40
2022-08-26T05:23:00.789Z,9.82
2022-08-26T05:24:04.775Z,10.43
2022-08-26T05:25:07.667Z,9.45
2022-08-26T05:26:10.892Z,9.43
2022-08-26T05:27:13.568Z,9.23
2022-08-26T05:28:20.267Z,9.07
2022-08-26T05:29:23.520Z,9.68
2022-08-26T05:30:25.638Z,9.02
2022-08-26T05:31:31.427Z,9.90
2022-08-26T05:32:36.175Z,9.93
2022-08-26T05:33:38.362Z,9.27
2022-08-26T05:34:44.967Z,9.07
2022-08-26T05:35:48.239Z,9.10
2022-08-26T05:36:52.552Z,9.32
2022-08-26T05:37:54.786Z,9.45
2022-08-26T05:38:58.266Z,9.07
2022-08-26T05:40:02.905Z,9.45
2022-08-26T05:41:15.598Z,9.43
2022-08-26T05:42:20.091Z,9.35
2022-08-26T05:43:22.255Z,9.00
2022-08-26T05:44:25.502Z,9.45
2022-08-26T05:45:27.920Z,8.80
2022-08-26T05:46:31.759Z,8.38
2022-08-26T05:47:35.583Z,8.88
2022-08-26T05:51:45.148Z,8.60
2022-08-26T05:52:47.538Z,9.88
2022-08-26T05:53:54.922Z,9.15
2022-08-26T05:54:57.360Z,9.27
2022-08-26T05:56:00.558Z,9.27
2022-08-26T05:57:02.842Z,9.02
2022-08-26T05:58:07.590Z,9.43
2022-08-26T05:59:15.330Z,9.75
2022-08-26T06:00:17.441Z,9.63
2022-08-26T06:01:22.558Z,8.90
2022-08-26T06:02:26.431Z,8.75
2022-08-26T06:03:32.171Z,9.25
2022-08-26T06:04:35.390Z,8.55
2022-08-26T06:05:40.561Z,8.30
2022-08-26T06:06:43.908Z,8.70
2022-08-26T06:08:05.757Z,8.57
2022-08-26T06:09:11.102Z,8.95
2022-08-26T06:10:32.663Z,11.80
2022-08-26T06:11:36.143Z,8.90
2022-08-26T06:12:38.551Z,8.38
2022-08-26T06:13:42.688Z,8.48
2022-08-26T06:14:44.845Z,8.88
2022-08-26T06:15:52.947Z,8.43
2022-08-26T06:16:56.109Z,8.50
2022-08-26T06:17:58.171Z,8.43
2022-08-26T06:19:03.790Z,8.57
2022-08-26T06:20:14.241Z,8.02
2022-08-26T06:21:19.429Z,7.88
2022-08-26T06:22:39.864Z,8.15
2022-08-26T06:24:01.147Z,7.90
2022-08-26T06:25:21.960Z,7.78
2022-08-26T06:26:26.131Z,7.85
2022-08-26T06:27:32.598Z,7.78
2022-08-26T06:28:35.071Z,8.85
2022-08-26T06:29:40.259Z,8.15
2022-08-26T06:30:42.717Z,7.60
2022-08-26T06:31:46.000Z,7.75
2022-08-26T06:32:48.092Z,7.90
2022-08-26T06:33:53.389Z,9.18
2022-08-26T06:34:58.098Z,7.93
2022-08-26T06:36:02.240Z,7.85
2022-08-26T06:37:06.506Z,8.48
2022-08-26T06:38:09.613Z,7.65
2022-08-26T06:39:15.331Z,8.10
2022-08-26T06:40:17.626Z,7.53
2022-08-26T06:41:22.728Z,7.80
2022-08-26T06:42:25.901Z,8.60
2022-08-26T06:43:29.696Z,7.68
2022-08-26T06:44:32.883Z,7.47
2022-08-26T06:45:35.027Z,7.75
2022-08-26T06:46:38.566Z,7.82
2022-08-26T06:47:40.789Z,7.60
2022-08-26T06:48:44.292Z,7.00
2022-08-26T06:49:46.432Z,7.25
2022-08-26T06:50:51.025Z,7.72
2022-08-26T06:51:54.160Z,7.68
2022-08-26T06:52:57.308Z,7.97
2022-08-26T06:54:03.100Z,8.05
2022-08-26T06:55:06.120Z,7.97
2022-08-26T06:56:11.319Z,7.80
2022-08-26T06:57:14.412Z,7.38
2022-08-26T06:58:20.068Z,7.53
2022-08-26T06:59:23.154Z,8.15
2022-08-26T07:00:25.672Z,7.28
2022-08-26T07:01:33.148Z,7.22
2022-08-26T07:02:35.331Z,8.05
2022-08-26T07:03:39.777Z,7.82
2022-08-26T07:04:44.474Z,7.68
2022-08-26T07:05:52.571Z,7.53
2022-08-26T07:06:56.293Z,7.28
2022-08-26T07:07:59.494Z,7.20
2022-08-26T07:09:05.046Z,7.88
2022-08-26T07:10:09.619Z,7.97
2022-08-26T07:11:12.519Z,7.50
2022-08-26T07:12:15.654Z,6.95
2022-08-26T07:13:18.264Z,7.00
2022-08-26T07:14:35.365Z,7.63
2022-08-26T07:15:40.071Z,7.15
2022-08-26T07:16:43.227Z,6.75
2022-08-26T07:17:46.339Z,6.93
2022-08-26T07:18:48.631Z,6.88
2022-08-26T07:19:53.642Z,6.78
2022-08-26T07:20:57.181Z,7.88
2022-08-26T07:22:03.374Z,6.68
2022-08-26T07:23:07.776Z,7.13
2022-08-26T07:24:17.493Z,6.63
2022-08-26T07:25:19.657Z,7.25
2022-08-26T07:26:26.341Z,6.97
2022-08-26T07:27:31.746Z,7.28
2022-08-26T07:28:33.995Z,7.78
2022-08-26T07:29:39.020Z,8.10
2022-08-26T07:30:42.288Z,7.65
2022-08-26T07:31:45.288Z,7.45
2022-08-26T07:32:48.663Z,6.70
2022-08-26T07:33:51.329Z,7.47
2022-08-26T07:34:55.187Z,7.07
2022-08-26T07:35:58.719Z,7.18
2022-08-26T07:37:03.518Z,7.55
2022-08-26T07:38:05.661Z,7.32
2022-08-26T07:39:08.998Z,8.00
2022-08-26T07:40:11.949Z,8.48
2022-08-26T07:41:17.453Z,7.50
2022-08-26T07:42:20.480Z,7.20
2022-08-26T07:43:23.827Z,8.15
2022-08-26T07:44:27.896Z,8.65
2022-08-26T07:45:30.276Z,7.85
2022-08-26T07:46:33.440Z,8.48
2022-08-26T07:47:37.271Z,8.60
2022-08-26T07:48:39.462Z,7.93
2022-08-26T07:49:52.729Z,7.75
2022-08-26T07:50:55.188Z,8.48
2022-08-26T07:52:00.334Z,8.80
2022-08-26T07:53:03.089Z,7.88
2022-08-26T07:54:07.457Z,8.73
2022-08-26T07:55:11.436Z,8.38
2022-08-26T07:56:13.603Z,7.72
2022-08-26T07:57:16.962Z,7.88
2022-08-26T07:58:21.385Z,8.38
2022-08-26T07:59:25.160Z,7.30
2022-08-26T08:00:27.950Z,7.65
2022-08-26T08:01:31.516Z,7.20
2022-08-26T08:02:36.490Z,7.90
2022-08-26T08:03:38.768Z,7.53
2022-08-26T08:04:42.066Z,6.97
2022-08-26T08:05:44.444Z,7.28
2022-08-26T08:06:49.566Z,7.70
2022-08-26T08:07:53.639Z,8.10
2022-08-26T08:09:16.452Z,8.50
2022-08-26T08:10:22.521Z,8.43
2022-08-26T08:11:31.100Z,8.73
2022-08-26T08:12:33.263Z,7.45
2022-08-26T08:13:38.373Z,7.90
2022-08-26T08:14:40.510Z,8.07
2022-08-26T08:15:45.007Z,8.13
2022-08-26T08:16:47.278Z,7.63
2022-08-26T08:17:58.799Z,7.68
2022-08-26T08:19:03.770Z,7.25
2022-08-26T08:20:08.309Z,7.30
2022-08-26T08:21:21.785Z,7.10
2022-08-26T08:22:26.857Z,7.45
2022-08-26T08:23:31.999Z,6.93
2022-08-26T08:24:35.819Z,7.15
2022-08-26T08:25:37.972Z,6.53
2022-08-26T08:26:41.382Z,6.97
2022-08-26T08:27:45.221Z,6.53
2022-08-26T08:28:48.770Z,6.55
2022-08-26T08:29:50.991Z,6.35
2022-08-26T08:30:56.100Z,6.95
2022-08-26T08:31:59.908Z,7.43
2022-08-26T08:33:03.304Z,7.40
2022-08-26T08:34:05.814Z,7.22
2022-08-26T08:35:11.587Z,6.95
2022-08-26T08:36:18.548Z,7.72
2022-08-26T08:37:23.944Z,7.43
2022-08-26T08:38:26.741Z,7.90
2022-08-26T08:39:32.872Z,7.45
2022-08-26T08:40:40.072Z,7.60
2022-08-26T08:41:55.492Z,7.72
2022-08-26T08:43:03.791Z,8.30
2022-08-26T08:44:13.836Z,7.63
2022-08-26T08:45:23.483Z,7.45
2022-08-26T08:46:26.574Z,7.25
2022-08-26T08:47:34.358Z,6.60
2022-08-26T08:48:43.451Z,5.97
2022-08-26T08:49:47.077Z,6.90
2022-08-26T08:50:53.947Z,6.30
2022-08-26T08:52:00.590Z,5.53
2022-08-26T08:53:12.380Z,5.70
2022-08-26T08:54:17.995Z,6.03
2022-08-26T08:55:31.409Z,5.38
2022-08-26T08:56:38.316Z,5.57
2022-08-26T08:58:02.287Z,5.57
2022-08-26T08:59:14.053Z,5.50
2022-08-26T09:00:19.811Z,5.75
2022-08-26T09:01:56.533Z,6.10
2022-08-26T09:03:03.965Z,6.00
2022-08-26T09:04:25.876Z,5.72
2022-08-26T09:05:34.251Z,6.38
2022-08-26T09:06:36.446Z,5.45
2022-08-26T09:07:47.914Z,12.75
2022-08-26T09:08:52.753Z,5.63
2022-08-26T09:09:59.169Z,10.55
2022-08-26T09:11:05.191Z,7.65
2022-08-26T09:12:14.662Z,4.80
2022-08-26T09:13:26.126Z,3.67
2022-08-26T09:14:32.028Z,4.00
2022-08-26T09:15:48.240Z,4.13
2022-08-26T09:17:02.603Z,3.90
2022-08-26T09:18:11.146Z,4.50
2022-08-26T09:19:24.690Z,4.18
2022-08-26T09:20:49.816Z,4.25
2022-08-26T09:21:57.076Z,4.50
2022-08-26T09:23:00.585Z,4.13
2022-08-26T09:24:03.818Z,4.30
2022-08-26T09:25:11.172Z,4.43
2022-08-26T09:26:20.203Z,4.50
2022-08-26T09:27:37.819Z,4.30
2022-08-26T09:28:46.068Z,4.20
2022-08-26T09:29:50.414Z,4.63
2022-08-26T09:31:03.099Z,4.82
2022-08-26T09:32:21.101Z,4.85
2022-08-26T09:33:29.403Z,5.25
2022-08-26T09:34:33.506Z,5.45
2022-08-26T09:35:39.530Z,5.13
2022-08-26T09:36:45.369Z,5.15
2022-08-26T09:38:52.894Z,5.13
2022-08-26T09:40:11.275Z,5.38
2022-08-26T09:41:26.206Z,5.38
2022-08-26T09:42:28.653Z,5.80
2022-08-26T09:43:32.552Z,6.60
2022-08-26T09:44:36.584Z,6.72
2022-08-26T09:45:50.107Z,7.18
2022-08-26T09:46:59.037Z,8.30
2022-08-26T09:48:02.266Z,7.28
2022-08-26T09:49:35.868Z,7.35
2022-08-26T09:50:39.835Z,8.15
2022-08-26T09:51:44.319Z,8.93
2022-08-26T09:53:09.911Z,8.45
2022-08-26T09:54:30.237Z,9.57
2022-08-26T09:55:33.707Z,9.05
2022-08-26T09:56:39.762Z,8.25
2022-08-26T09:57:48.971Z,8.95
2022-08-26T09:58:52.447Z,8.15
2022-08-26T09:59:55.066Z,8.55
2022-08-26T10:01:01.540Z,8.60
2022-08-26T10:02:21.286Z,8.13
2022-08-26T10:03:28.409Z,8.68
2022-08-26T10:04:34.182Z,8.40
2022-08-26T10:05:42.763Z,9.00
2022-08-26T10:06:57.079Z,8.50
2022-08-26T10:08:01.865Z,9.45
2022-08-26T10:09:09.890Z,8.13
2022-08-26T10:10:22.595Z,8.38
2022-08-26T10:11:34.572Z,8.65
2022-08-26T10:12:48.248Z,8.38
2022-08-26T10:13:57.925Z,8.63
2022-08-26T10:15:03.489Z,8.87
2022-08-26T10:16:14.713Z,8.73
2022-08-26T10:18:31.931Z,10.32
2022-08-26T10:19:55.516Z,9.07
2022-08-26T10:21:07.419Z,8.55
2022-08-26T10:22:18.174Z,9.48
2022-08-26T10:24:32.395Z,9.05
2022-08-26T10:25:42.443Z,9.50
2022-08-26T10:26:59.856Z,8.98
2022-08-26T10:28:11.086Z,8.68
2022-08-26T10:29:19.937Z,8.75
2022-08-26T10:30:30.973Z,9.27
2022-08-26T10:31:40.971Z,9.00
2022-08-26T10:32:48.940Z,9.23
2022-08-26T10:33:55.468Z,9.02
2022-08-26T10:35:01.951Z,8.73
2022-08-26T10:36:36.441Z,8.45
2022-08-26T10:37:50.021Z,8.90
2022-08-26T10:38:53.451Z,8.73
2022-08-26T10:40:00.650Z,8.85
2022-08-26T10:41:10.500Z,8.35
2022-08-26T10:42:18.391Z,8.98
2022-08-26T10:43:26.667Z,8.65
2022-08-26T10:44:34.450Z,9.05
2022-08-26T10:45:43.903Z,8.68
2022-08-26T10:46:51.977Z,9.10
2022-08-26T10:47:57.736Z,9.20
2022-08-26T10:49:06.513Z,9.25
2022-08-26T10:50:11.235Z,9.30
2022-08-26T10:51:18.902Z,8.73
2022-08-26T10:52:29.757Z,8.80
2022-08-26T10:53:44.410Z,9.73
2022-08-26T10:54:53.820Z,9.40
2022-08-26T10:56:04.628Z,9.20
2022-08-26T10:57:15.236Z,8.85
2022-08-26T10:58:33.123Z,8.52
2022-08-26T10:59:50.329Z,8.45
2022-08-26T11:01:22.841Z,8.65
2022-08-26T11:02:34.713Z,8.63
2022-08-26T11:03:44.469Z,8.85
2022-08-26T11:04:54.315Z,8.30
2022-08-26T11:06:25.579Z,8.40
2022-08-26T11:07:40.497Z,8.98
2022-08-26T11:08:48.168Z,8.60
2022-08-26T11:09:50.556Z,8.70
2022-08-26T11:10:59.232Z,8.30
2022-08-26T11:12:09.976Z,8.02
2022-08-26T11:13:13.565Z,8.55
2022-08-26T11:14:44.674Z,7.85
2022-08-26T11:16:01.171Z,7.40
2022-08-26T11:17:05.247Z,8.05
2022-08-26T11:18:10.614Z,7.80
2022-08-26T11:20:02.037Z,8.45
2022-08-26T11:21:52.695Z,7.78
2022-08-26T11:22:59.594Z,7.45
2022-08-26T11:24:01.846Z,7.93
2022-08-26T11:25:09.560Z,7.65
2022-08-26T11:26:18.895Z,7.70
2022-08-26T11:28:03.352Z,7.47
2022-08-26T11:29:13.114Z,7.88
2022-08-26T11:30:47.734Z,7.85
2022-08-26T11:32:00.293Z,7.65
2022-08-26T11:33:05.492Z,7.65
2022-08-26T11:34:14.301Z,8.10
2022-08-26T11:35:52.159Z,7.85
2022-08-26T11:37:01.569Z,8.77
2022-08-26T11:38:18.050Z,8.80
2022-08-26T11:39:25.702Z,8.73
2022-08-26T11:40:33.080Z,9.32
2022-08-26T11:41:35.387Z,8.80
2022-08-26T11:42:43.249Z,8.10
2022-08-26T11:43:49.375Z,8.20
2022-08-26T11:44:52.582Z,8.02
2022-08-26T11:46:01.276Z,8.52
2022-08-26T11:47:11.417Z,7.88
2022-08-26T11:48:18.876Z,7.80
2022-08-26T11:49:21.146Z,7.55
2022-08-26T11:50:27.307Z,8.00
2022-08-26T11:51:31.615Z,7.75
2022-08-26T11:52:36.643Z,7.72
2022-08-26T11:53:41.293Z,7.53
2022-08-26T11:55:03.768Z,8.13
2022-08-26T11:56:11.550Z,8.40
2022-08-26T11:57:15.002Z,7.00
2022-08-26T11:58:20.323Z,7.55
2022-08-26T11:59:38.691Z,7.80
2022-08-26T12:00:52.837Z,7.53
2022-08-26T12:01:57.353Z,7.90
2022-08-26T12:03:06.114Z,7.65
2022-08-26T12:04:12.411Z,8.60
2022-08-26T12:05:30.904Z,8.25
2022-08-26T12:06:43.345Z,7.97
2022-08-26T12:07:53.104Z,8.05
2022-08-26T12:08:58.099Z,8.02
2022-08-26T12:10:03.547Z,8.38
2022-08-26T12:11:07.627Z,8.40
2022-08-26T12:12:13.257Z,7.70
2022-08-26T12:13:23.470Z,7.68
2022-08-26T12:14:27.827Z,8.05
2022-08-26T12:15:32.903Z,7.88
2022-08-26T12:16:39.843Z,8.80
2022-08-26T12:17:43.300Z,8.30
2022-08-26T12:18:46.528Z,8.40
2022-08-26T12:19:49.675Z,8.70
2022-08-26T12:20:54.333Z,8.27
2022-08-26T12:22:02.758Z,8.80
2022-08-26T12:23:07.667Z,8.60
2022-08-26T12:24:10.882Z,8.82
2022-08-26T12:25:13.169Z,8.25
2022-08-26T12:26:25.569Z,8.07
2022-08-26T12:27:30.376Z,9.32
2022-08-26T12:28:33.746Z,8.93
2022-08-26T12:29:36.055Z,8.27
2022-08-26T12:30:39.520Z,8.75
2022-08-26T12:31:45.166Z,9.05
2022-08-26T12:32:56.665Z,9.10
2022-08-26T12:34:04.220Z,8.45
2022-08-26T12:35:09.292Z,8.52
2022-08-26T12:36:18.423Z,8.85
2022-08-26T12:37:21.733Z,8.80
2022-08-26T12:38:28.112Z,9.07
2022-08-26T12:39:34.414Z,8.63
2022-08-26T12:40:43.288Z,9.60
2022-08-26T12:41:53.039Z,9.18
2022-08-26T12:42:56.524Z,8.85
2022-08-26T12:43:58.791Z,9.23
2022-08-26T12:45:06.517Z,8.70
2022-08-26T12:46:11.320Z,8.60
2022-08-26T12:47:25.799Z,16.65
2022-08-26T12:48:50.259Z,9.98
2022-08-26T12:50:03.722Z,9.60
2022-08-26T12:51:08.599Z,14.82
2022-08-26T12:52:31.019Z,12.73
2022-08-26T12:53:44.340Z,10.25
2022-08-26T12:55:01.346Z,9.90
2022-08-26T12:56:21.987Z,8.52
2022-08-26T12:57:28.277Z,8.85
2022-08-26T12:58:33.328Z,9.18
2022-08-26T12:59:35.669Z,9.30
2022-08-26T13:00:41.250Z,9.35
2022-08-26T13:01:44.953Z,9.25
2022-08-26T13:02:48.345Z,9.35
2022-08-26T13:03:51.884Z,9.50
2022-08-26T13:05:00.669Z,9.65
2022-08-26T13:06:30.049Z,10.50
2022-08-26T13:07:32.279Z,9.40
2022-08-26T13:08:40.476Z,9.57
2022-08-26T13:09:43.087Z,9.35
2022-08-26T13:10:48.557Z,9.13
2022-08-26T13:12:02.268Z,9.57
2022-08-26T13:13:05.278Z,9.23
2022-08-26T13:14:11.261Z,10.00
2022-08-26T13:15:13.418Z,9.45
2022-08-26T13:16:16.704Z,11.38
2022-08-26T13:17:19.070Z,9.38
2022-08-26T13:18:22.451Z,9.10
2022-08-26T13:19:26.895Z,9.02
2022-08-26T13:20:29.256Z,10.68
2022-08-26T13:21:37.429Z,9.73
2022-08-26T13:23:45.309Z,10.95
2022-08-26T13:24:47.482Z,9.90
2022-08-26T13:25:50.735Z,9.55
2022-08-26T13:26:52.892Z,10.23
2022-08-26T13:27:56.409Z,10.48
2022-08-26T13:29:01.490Z,10.25
2022-08-26T13:30:06.730Z,9.85
2022-08-26T13:31:12.453Z,10.35
2022-08-26T13:32:15.494Z,10.90
2022-08-26T13:33:19.428Z,10.80
2022-08-26T13:34:23.539Z,9.75
2022-08-26T13:35:29.173Z,9.70
2022-08-26T13:36:32.554Z,9.90
2022-08-26T13:37:35.686Z,9.82
2022-08-26T13:38:38.891Z,11.13
2022-08-26T13:39:44.120Z,10.75
2022-08-26T13:40:47.711Z,11.88
2022-08-26T13:41:50.320Z,10.70
2022-08-26T13:42:53.548Z,10.93
2022-08-26T13:43:55.686Z,13.18
2022-08-26T13:44:59.782Z,11.85
2022-08-26T13:46:03.279Z,14.55
2022-08-26T13:47:06.226Z,15.13
2022-08-26T13:48:09.917Z,12.02
2022-08-26T13:49:13.325Z,10.85
2022-08-26T13:50:19.037Z,10.38
2022-08-26T13:51:22.831Z,11.25
2022-08-26T13:52:30.602Z,10.43
2022-08-26T13:53:34.277Z,10.38
2022-08-26T13:54:36.449Z,10.18
2022-08-26T13:55:44.333Z,11.05
2022-08-26T13:56:46.439Z,10.63
2022-08-26T13:57:49.536Z,10.52
2022-08-26T13:58:52.616Z,13.45
2022-08-26T13:59:56.515Z,12.73
2022-08-26T14:00:59.814Z,10.65
2022-08-26T14:02:03.790Z,10.52
2022-08-26T14:03:12.597Z,10.40
2022-08-26T14:04:27.044Z,10.57
2022-08-26T14:05:40.617Z,10.35
2022-08-26T14:06:42.771Z,9.60
2022-08-26T14:07:46.109Z,10.07
2022-08-26T14:08:48.616Z,10.60
2022-08-26T14:09:51.843Z,10.30
2022-08-26T14:10:56.347Z,9.77
2022-08-26T14:12:00.991Z,11.45
2022-08-26T14:13:06.278Z,10.60
2022-08-26T14:14:09.872Z,9.80
2022-08-26T14:15:16.267Z,10.75
2022-08-26T14:16:24.295Z,12.68
2022-08-26T14:17:27.872Z,12.25
2022-08-26T14:18:39.700Z,10.20
2022-08-26T14:19:47.090Z,10.38
2022-08-26T14:20:50.713Z,10.50
2022-08-26T14:21:54.125Z,10.95
2022-08-26T14:23:12.973Z,9.82
2022-08-26T14:24:17.022Z,10.17
2022-08-26T14:25:20.266Z,10.75
2022-08-26T14:26:28.921Z,10.38
2022-08-26T14:27:32.890Z,10.25
2022-08-26T14:28:35.182Z,10.88
2022-08-26T14:29:38.364Z,10.50
2022-08-26T14:30:42.790Z,10.27
2022-08-26T14:31:46.010Z,10.60
2022-08-26T14:32:51.894Z,9.65
2022-08-26T14:33:56.207Z,10.10
2022-08-26T14:34:59.477Z,9.85
2022-08-26T14:36:16.785Z,10.52
2022-08-26T14:37:20.250Z,10.82
2022-08-26T14:38:22.396Z,11.32
2022-08-26T14:39:25.567Z,10.80
2022-08-26T14:40:30.347Z,13.05
2022-08-26T14:41:36.308Z,9.82
2022-08-26T14:42:38.673Z,10.35
2022-08-26T14:43:48.058Z,9.45
2022-08-26T14:44:54.631Z,10.45
2022-08-26T14:45:59.539Z,10.15
2022-08-26T14:47:04.051Z,9.18
2022-08-26T14:48:06.222Z,9.27